sensor_id;sensor_type;location;lat;lon;timestamp;pressure;altitude;pressure_sealevel;temperature;humidity
78210;BME280;67485;48.816;9.930;2023-04-03T00:01:30;97534.66;;;2.09;77.72
78210;BME280;67485;48.816;9.930;2023-04-03T00:03:56;97532.03;;;2.07;77.46
78210;BME280;67485;48.816;9.930;2023-04-03T00:06:23;97532.03;;;2.07;77.88
78210;BME280;67485;48.816;9.930;2023-04-03T00:08:49;97530.38;;;2.09;78.16
78210;BME280;67485;48.816;9.930;2023-04-03T00:11:15;97530.38;;;2.09;77.76
78210;BME280;67485;48.816;9.930;2023-04-03T00:13:41;97534.69;;;2.10;77.67
78210;BME280;67485;48.816;9.930;2023-04-03T00:16:09;97534.72;;;2.12;77.64
78210;BME280;67485;48.816;9.930;2023-04-03T00:18:35;97529.53;;;2.10;77.31
78210;BME280;67485;48.816;9.930;2023-04-03T00:21:01;97532.03;;;2.07;77.35
78210;BME280;67485;48.816;9.930;2023-04-03T00:23:27;97528.63;;;2.08;77.23
78210;BME280;67485;48.816;9.930;2023-04-03T00:25:53;97531.22;;;2.10;78.08
78210;BME280;67485;48.816;9.930;2023-04-03T00:28:18;97527.69;;;2.05;77.66
78210;BME280;67485;48.816;9.930;2023-04-03T00:30:44;97523.41;;;2.05;77.85
78210;BME280;67485;48.816;9.930;2023-04-03T00:33:12;97525.19;;;2.09;77.28
78210;BME280;67485;48.816;9.930;2023-04-03T00:35:38;97521.88;;;2.17;77.55
78210;BME280;67485;48.816;9.930;2023-04-03T00:38:03;97531.34;;;2.16;77.76
78210;BME280;67485;48.816;9.930;2023-04-03T00:40:37;97526.03;;;2.08;77.81
78210;BME280;67485;48.816;9.930;2023-04-03T00:43:13;97519.13;;;2.09;78.29
78210;BME280;67485;48.816;9.930;2023-04-03T00:45:43;97533.03;;;2.14;78.44
78210;BME280;67485;48.816;9.930;2023-04-03T00:48:18;97525.34;;;2.19;78.39
78210;BME280;67485;48.816;9.930;2023-04-03T00:50:46;97528.66;;;2.11;77.82
78210;BME280;67485;48.816;9.930;2023-04-03T00:53:21;97521.88;;;2.17;77.86
78210;BME280;67485;48.816;9.930;2023-04-03T00:55:49;97525.31;;;2.16;78.05
78210;BME280;67485;48.816;9.930;2023-04-03T00:58:17;97529.56;;;2.14;77.45
78210;BME280;67485;48.816;9.930;2023-04-03T01:00:49;97524.47;;;2.17;77.95
78210;BME280;67485;48.816;9.930;2023-04-03T01:03:19;97522.69;;;2.14;77.61
78210;BME280;67485;48.816;9.930;2023-04-03T01:05:45;97526.00;;;2.07;78.04
78210;BME280;67485;48.816;9.930;2023-04-03T01:08:15;97523.41;;;2.05;78.07
78210;BME280;67485;48.816;9.930;2023-04-03T01:10:41;97531.88;;;1.98;78.21
78210;BME280;67485;48.816;9.930;2023-04-03T01:13:31;97531.94;;;2.01;78.12
78210;BME280;67485;48.816;9.930;2023-04-03T01:16:01;97521.69;;;2.06;78.27
78210;BME280;67485;48.816;9.930;2023-04-03T01:18:27;97519.94;;;2.06;78.58
78210;BME280;67485;48.816;9.930;2023-04-03T01:26:32;97528.47;;;1.99;78.45
78210;BME280;67485;48.816;9.930;2023-04-03T01:28:59;97526.69;;;1.97;78.26
78210;BME280;67485;48.816;9.930;2023-04-03T01:34:01;97528.34;;;1.93;78.66
78210;BME280;67485;48.816;9.930;2023-04-03T01:36:31;97529.19;;;1.92;78.46
78210;BME280;67485;48.816;9.930;2023-04-03T01:38:58;97528.34;;;1.93;78.91
78210;BME280;67485;48.816;9.930;2023-04-03T01:41:25;97524.06;;;1.95;79.13
78210;BME280;67485;48.816;9.930;2023-04-03T01:43:54;97535.19;;;1.91;79.06
78210;BME280;67485;48.816;9.930;2023-04-03T01:46:20;97536.94;;;1.92;78.90
78210;BME280;67485;48.816;9.930;2023-04-03T01:48:46;97535.19;;;1.91;79.48
78210;BME280;67485;48.816;9.930;2023-04-03T01:51:12;97536.03;;;1.91;79.39
78210;BME280;67485;48.816;9.930;2023-04-03T01:53:38;97536.97;;;1.95;79.18
78210;BME280;67485;48.816;9.930;2023-04-03T01:56:04;97527.41;;;1.89;78.46
78210;BME280;67485;48.816;9.930;2023-04-03T01:58:31;97524.84;;;1.91;78.50
78210;BME280;67485;48.816;9.930;2023-04-03T02:00:57;97528.28;;;1.90;77.97
78210;BME280;67485;48.816;9.930;2023-04-03T02:03:22;97532.56;;;1.88;78.21
78210;BME280;67485;48.816;9.930;2023-04-03T02:05:49;97528.38;;;1.96;78.68
78210;BME280;67485;48.816;9.930;2023-04-03T02:08:15;97528.28;;;1.90;77.85
78210;BME280;67485;48.816;9.930;2023-04-03T02:10:44;97527.47;;;1.92;78.07
78210;BME280;67485;48.816;9.930;2023-04-03T02:13:12;97532.63;;;1.92;78.20
78210;BME280;67485;48.816;9.930;2023-04-03T02:15:38;97528.22;;;1.87;77.90
78210;BME280;67485;48.816;9.930;2023-04-03T02:18:05;97534.28;;;1.89;78.16
78210;BME280;67485;48.816;9.930;2023-04-03T02:20:31;97529.03;;;1.84;78.05
78210;BME280;67485;48.816;9.930;2023-04-03T02:22:58;97544.66;;;1.90;77.98
78210;BME280;67485;48.816;9.930;2023-04-03T02:25:24;97539.53;;;1.92;78.08
78210;BME280;67485;48.816;9.930;2023-04-03T02:27:50;97545.53;;;1.91;77.98
78210;BME280;67485;48.816;9.930;2023-04-03T02:30:15;97530.84;;;1.88;78.00
78210;BME280;67485;48.816;9.930;2023-04-03T02:32:42;97527.22;;;1.80;77.47
78210;BME280;67485;48.816;9.930;2023-04-03T02:35:09;97526.34;;;1.80;77.67
78210;BME280;67485;48.816;9.930;2023-04-03T02:37:35;97528.94;;;1.80;77.77
78210;BME280;67485;48.816;9.930;2023-04-03T02:40:01;97530.72;;;1.82;77.00
78210;BME280;67485;48.816;9.930;2023-04-03T02:42:27;97526.53;;;1.89;77.47
78210;BME280;67485;48.816;9.930;2023-04-03T02:44:53;97531.66;;;1.86;76.96
78210;BME280;67485;48.816;9.930;2023-04-03T02:47:19;97535.88;;;1.81;75.84
78210;BME280;67485;48.816;9.930;2023-04-03T02:49:44;97535.03;;;1.82;77.04
78210;BME280;67485;48.816;9.930;2023-04-03T02:52:13;97534.94;;;1.78;76.24
78210;BME280;67485;48.816;9.930;2023-04-03T02:54:39;97534.94;;;1.78;76.76
78210;BME280;67485;48.816;9.930;2023-04-03T02:57:07;97543.63;;;1.81;76.43
78210;BME280;67485;48.816;9.930;2023-04-03T02:59:36;97536.81;;;1.86;75.54
78210;BME280;67485;48.816;9.930;2023-04-03T03:02:03;97544.59;;;1.87;74.82
78210;BME280;67485;48.816;9.930;2023-04-03T03:04:28;97534.28;;;1.89;73.28
78210;BME280;67485;48.816;9.930;2023-04-03T03:06:55;97536.00;;;1.88;73.44
78210;BME280;67485;48.816;9.930;2023-04-03T03:09:21;97532.50;;;1.85;73.53
78210;BME280;67485;48.816;9.930;2023-04-03T03:11:47;97537.56;;;1.80;74.08
78210;BME280;67485;48.816;9.930;2023-04-03T03:14:12;97541.88;;;1.80;73.85
78210;BME280;67485;48.816;9.930;2023-04-03T03:16:38;97532.44;;;1.82;74.31
78210;BME280;67485;48.816;9.930;2023-04-03T03:19:04;97527.16;;;1.77;74.07
78210;BME280;67485;48.816;9.930;2023-04-03T03:21:30;97522.81;;;1.74;74.10
78210;BME280;67485;48.816;9.930;2023-04-03T03:23:55;97524.50;;;1.72;73.72
78210;BME280;67485;48.816;9.930;2023-04-03T03:26:21;97530.59;;;1.76;73.75
78210;BME280;67485;48.816;9.930;2023-04-03T03:28:47;97525.38;;;1.73;73.08
78210;BME280;67485;48.816;9.930;2023-04-03T03:31:12;97529.66;;;1.72;73.89
78210;BME280;67485;48.816;9.930;2023-04-03T03:33:40;97533.97;;;1.72;74.38
78210;BME280;67485;48.816;9.930;2023-04-03T03:36:06;97535.72;;;1.73;74.44
78210;BME280;67485;48.816;9.930;2023-04-03T03:38:32;97523.56;;;1.69;74.77
78210;BME280;67485;48.816;9.930;2023-04-03T03:40:59;97529.63;;;1.69;74.33
78210;BME280;67485;48.816;9.930;2023-04-03T03:43:26;97528.00;;;1.74;74.74
78210;BME280;67485;48.816;9.930;2023-04-03T03:45:53;97527.88;;;1.70;74.05
78210;BME280;67485;48.816;9.930;2023-04-03T03:48:20;97524.38;;;1.66;73.86
78210;BME280;67485;48.816;9.930;2023-04-03T03:50:47;97533.81;;;1.64;74.06
78210;BME280;67485;48.816;9.930;2023-04-03T03:53:13;97526.00;;;1.61;73.82
78210;BME280;67485;48.816;9.930;2023-04-03T03:55:39;97526.91;;;1.63;74.63
78210;BME280;67485;48.816;9.930;2023-04-03T03:58:05;97531.13;;;1.58;73.82
78210;BME280;67485;48.816;9.930;2023-04-03T04:00:32;97531.13;;;1.58;74.45
78210;BME280;67485;48.816;9.930;2023-04-03T04:02:58;97528.47;;;1.56;73.93
78210;BME280;67485;48.816;9.930;2023-04-03T04:05:25;97534.53;;;1.57;74.75
78210;BME280;67485;48.816;9.930;2023-04-03T04:07:52;97530.22;;;1.57;74.38
78210;BME280;67485;48.816;9.930;2023-04-03T04:10:18;97527.63;;;1.56;73.94
78210;BME280;67485;48.816;9.930;2023-04-03T04:12:45;97531.94;;;1.57;74.53
78210;BME280;67485;48.816;9.930;2023-04-03T04:15:11;97526.69;;;1.52;73.85
78210;BME280;67485;48.816;9.930;2023-04-03T04:17:37;97525.81;;;1.52;74.52
78210;BME280;67485;48.816;9.930;2023-04-03T04:20:06;97528.28;;;1.47;74.53
78210;BME280;67485;48.816;9.930;2023-04-03T04:22:32;97521.34;;;1.43;74.40
78210;BME280;67485;48.816;9.930;2023-04-03T04:24:58;97526.41;;;1.40;74.65
78210;BME280;67485;48.816;9.930;2023-04-03T04:27:25;97532.41;;;1.37;74.02
78210;BME280;67485;48.816;9.930;2023-04-03T04:29:50;97527.94;;;1.30;74.31
78210;BME280;67485;48.816;9.930;2023-04-03T04:32:17;97525.09;;;1.18;74.60
78210;BME280;67485;48.816;9.930;2023-04-03T04:34:42;97530.16;;;1.11;75.55
78210;BME280;67485;48.816;9.930;2023-04-03T04:37:08;97528.31;;;1.07;75.39
78210;BME280;67485;48.816;9.930;2023-04-03T04:39:34;97535.09;;;1.02;75.53
78210;BME280;67485;48.816;9.930;2023-04-03T04:42:01;97538.44;;;0.98;75.88
78210;BME280;67485;48.816;9.930;2023-04-03T04:44:29;97530.53;;;0.90;76.28
78210;BME280;67485;48.816;9.930;2023-04-03T04:46:55;97532.91;;;0.83;76.10
78210;BME280;67485;48.816;9.930;2023-04-03T04:49:21;97535.41;;;0.78;77.25
78210;BME280;67485;48.816;9.930;2023-04-03T04:51:47;97540.47;;;0.75;76.93
78210;BME280;67485;48.816;9.930;2023-04-03T04:54:13;97537.84;;;0.72;77.40
78210;BME280;67485;48.816;9.930;2023-04-03T04:56:39;97540.63;;;0.81;77.03
78210;BME280;67485;48.816;9.930;2023-04-03T04:59:05;97539.75;;;0.80;76.94
78210;BME280;67485;48.816;9.930;2023-04-03T05:01:31;97546.53;;;0.75;77.19
78210;BME280;67485;48.816;9.930;2023-04-03T05:04:03;97540.25;;;0.64;77.06
78210;BME280;67485;48.816;9.930;2023-04-03T05:06:30;97547.81;;;0.58;77.45
78210;BME280;67485;48.816;9.930;2023-04-03T05:08:58;97550.41;;;0.58;77.68
78210;BME280;67485;48.816;9.930;2023-04-03T05:11:24;97553.94;;;0.61;77.98
78210;BME280;67485;48.816;9.930;2023-04-03T05:13:50;97559.13;;;0.63;77.89
78210;BME280;67485;48.816;9.930;2023-04-03T05:16:16;97557.38;;;0.62;78.00
78210;BME280;67485;48.816;9.930;2023-04-03T05:18:42;97562.56;;;0.63;78.32
78210;BME280;67485;48.816;9.930;2023-04-03T05:21:14;97560.91;;;0.66;78.40
78210;BME280;67485;48.816;9.930;2023-04-03T05:23:40;97563.38;;;0.61;78.11
78210;BME280;67485;48.816;9.930;2023-04-03T05:26:06;97563.53;;;0.69;78.30
78210;BME280;67485;48.816;9.930;2023-04-03T05:28:32;97568.78;;;0.70;78.23
78210;BME280;67485;48.816;9.930;2023-04-03T05:30:59;97572.34;;;0.75;78.08
78210;BME280;67485;48.816;9.930;2023-04-03T05:33:30;97564.03;;;0.89;77.91
78210;BME280;67485;48.816;9.930;2023-04-03T05:36:02;97569.31;;;0.93;77.42
78210;BME280;67485;48.816;9.930;2023-04-03T05:38:28;97569.28;;;0.92;77.79
78210;BME280;67485;48.816;9.930;2023-04-03T05:40:55;97566.81;;;0.96;77.98
78210;BME280;67485;48.816;9.930;2023-04-03T05:43:20;97569.47;;;1.01;77.84
78210;BME280;67485;48.816;9.930;2023-04-03T05:45:47;97568.66;;;1.04;77.55
78210;BME280;67485;48.816;9.930;2023-04-03T05:48:14;97575.69;;;1.09;77.77
78210;BME280;67485;48.816;9.930;2023-04-03T05:50:39;97574.28;;;1.24;78.00
78210;BME280;67485;48.816;9.930;2023-04-03T05:53:17;97571.09;;;1.34;77.49
78210;BME280;67485;48.816;9.930;2023-04-03T05:55:44;97570.31;;;1.38;77.39
78210;BME280;67485;48.816;9.930;2023-04-03T05:58:10;97563.25;;;1.31;77.26
78210;BME280;67485;48.816;9.930;2023-04-03T06:00:35;97563.38;;;1.37;76.97
78210;BME280;67485;48.816;9.930;2023-04-03T06:03:02;97567.72;;;1.38;76.98
78210;BME280;67485;48.816;9.930;2023-04-03T06:05:28;97573.59;;;1.31;76.97
78210;BME280;67485;48.816;9.930;2023-04-03T06:07:54;97578.84;;;1.34;76.88
78210;BME280;67485;48.816;9.930;2023-04-03T06:10:19;97572.06;;;1.39;76.91
78210;BME280;67485;48.816;9.930;2023-04-03T06:12:45;97575.78;;;1.54;76.83
78210;BME280;67485;48.816;9.930;2023-04-03T06:15:11;97582.78;;;1.58;76.54
78210;BME280;67485;48.816;9.930;2023-04-03T06:17:39;97582.84;;;1.61;76.59
78210;BME280;67485;48.816;9.930;2023-04-03T06:20:05;97585.41;;;1.61;76.06
78210;BME280;67485;48.816;9.930;2023-04-03T06:22:31;97582.16;;;1.70;76.18
78210;BME280;67485;48.816;9.930;2023-04-03T06:24:57;97583.09;;;1.73;75.75
78210;BME280;67485;48.816;9.930;2023-04-03T06:27:23;97588.31;;;1.76;76.35
78210;BME280;67485;48.816;9.930;2023-04-03T06:29:49;97596.28;;;1.86;75.81
78210;BME280;67485;48.816;9.930;2023-04-03T06:32:15;97590.38;;;1.93;75.56
78210;BME280;67485;48.816;9.930;2023-04-03T06:34:41;97597.41;;;2.00;75.21
78210;BME280;67485;48.816;9.930;2023-04-03T06:37:17;97600.78;;;1.96;75.19
78210;BME280;67485;48.816;9.930;2023-04-03T06:39:44;97592.19;;;1.97;75.07
78210;BME280;67485;48.816;9.930;2023-04-03T06:42:10;97602.53;;;1.97;75.07
78210;BME280;67485;48.816;9.930;2023-04-03T06:44:45;97599.06;;;1.97;75.18
78210;BME280;67485;48.816;9.930;2023-04-03T06:47:12;97595.63;;;1.98;74.67
78210;BME280;67485;48.816;9.930;2023-04-03T06:49:38;97606.84;;;1.97;75.02
78210;BME280;67485;48.816;9.930;2023-04-03T06:52:03;97606.03;;;1.99;75.14
78210;BME280;67485;48.816;9.930;2023-04-03T06:54:31;97607.69;;;1.97;75.29
78210;BME280;67485;48.816;9.930;2023-04-03T06:56:57;97610.53;;;2.09;75.44
78210;BME280;67485;48.816;9.930;2023-04-03T06:59:24;97609.50;;;2.03;74.76
78210;BME280;67485;48.816;9.930;2023-04-03T07:01:49;97616.13;;;1.87;74.82
78210;BME280;67485;48.816;9.930;2023-04-03T07:04:15;97617.88;;;1.88;75.80
78210;BME280;67485;48.816;9.930;2023-04-03T07:06:41;97616.13;;;1.87;76.06
78210;BME280;67485;48.816;9.930;2023-04-03T07:09:08;97612.75;;;1.91;75.70
78210;BME280;67485;48.816;9.930;2023-04-03T07:11:34;97612.91;;;2.00;75.72
78210;BME280;67485;48.816;9.930;2023-04-03T07:14:01;97613.69;;;1.96;75.60
78210;BME280;67485;48.816;9.930;2023-04-03T07:16:27;97617.44;;;2.10;75.46
78210;BME280;67485;48.816;9.930;2023-04-03T07:18:53;97617.59;;;2.18;75.04
78210;BME280;67485;48.816;9.930;2023-04-03T07:21:18;97624.75;;;2.32;74.28
78210;BME280;67485;48.816;9.930;2023-04-03T07:23:44;97618.91;;;2.43;75.30
78210;BME280;67485;48.816;9.930;2023-04-03T07:26:10;97627.47;;;2.39;75.03
78210;BME280;67485;48.816;9.930;2023-04-03T07:28:36;97625.78;;;2.41;74.11
78210;BME280;67485;48.816;9.930;2023-04-03T07:31:07;97623.81;;;2.28;74.24
78210;BME280;67485;48.816;9.930;2023-04-03T07:33:36;97629.59;;;2.62;73.81
78210;BME280;67485;48.816;9.930;2023-04-03T07:36:02;97624.53;;;2.68;73.46
78210;BME280;67485;48.816;9.930;2023-04-03T07:38:28;97639.47;;;2.83;73.56
78210;BME280;67485;48.816;9.930;2023-04-03T07:40:54;97635.56;;;3.08;72.72
78210;BME280;67485;48.816;9.930;2023-04-03T07:43:20;97637.53;;;3.25;72.02
78210;BME280;67485;48.816;9.930;2023-04-03T07:45:48;97638.84;;;2.98;72.14
78210;BME280;67485;48.816;9.930;2023-04-03T07:48:24;97637.94;;;2.95;71.98
78210;BME280;67485;48.816;9.930;2023-04-03T07:50:50;97644.34;;;3.18;72.56
78210;BME280;67485;48.816;9.930;2023-04-03T07:53:15;97642.91;;;3.36;72.51
78210;BME280;67485;48.816;9.930;2023-04-03T07:55:41;97637.75;;;3.40;71.18
78210;BME280;67485;48.816;9.930;2023-04-03T07:58:11;97641.06;;;3.30;71.65
78210;BME280;67485;48.816;9.930;2023-04-03T08:00:37;97641.56;;;3.64;71.02
78210;BME280;67485;48.816;9.930;2023-04-03T08:03:04;97645.25;;;3.82;70.25
78210;BME280;67485;48.816;9.930;2023-04-03T08:05:30;97640.88;;;3.78;69.65
78210;BME280;67485;48.816;9.930;2023-04-03T08:07:55;97635.41;;;4.25;69.29
78210;BME280;67485;48.816;9.930;2023-04-03T08:10:21;97638.16;;;4.39;68.08
78210;BME280;67485;48.816;9.930;2023-04-03T08:12:47;97648.94;;;3.99;68.56
78210;BME280;67485;48.816;9.930;2023-04-03T08:15:13;97649.72;;;3.92;68.38
78210;BME280;67485;48.816;9.930;2023-04-03T08:17:39;97638.72;;;4.12;69.05
78210;BME280;67485;48.816;9.930;2023-04-03T08:20:06;97645.22;;;3.80;69.29
78210;BME280;67485;48.816;9.930;2023-04-03T08:22:34;97652.00;;;3.70;69.31
78210;BME280;67485;48.816;9.930;2023-04-03T08:25:00;97640.78;;;3.71;68.76
78210;BME280;67485;48.816;9.930;2023-04-03T08:27:27;97655.38;;;3.63;69.25
78210;BME280;67485;48.816;9.930;2023-04-03T08:29:54;97651.53;;;3.99;68.77
78210;BME280;67485;48.816;9.930;2023-04-03T08:32:20;97650.72;;;4.03;67.43
78210;BME280;67485;48.816;9.930;2023-04-03T08:34:46;97650.97;;;4.24;67.74
78210;BME280;67485;48.816;9.930;2023-04-03T08:37:12;97655.25;;;4.18;67.92
78210;BME280;67485;48.816;9.930;2023-04-03T08:39:37;97648.81;;;3.87;67.90
78210;BME280;67485;48.816;9.930;2023-04-03T08:45:02;97656.38;;;4.42;67.67
78210;BME280;67485;48.816;9.930;2023-04-03T08:47:42;97657.53;;;3.95;68.10
78210;BME280;67485;48.816;9.930;2023-04-03T08:50:15;97661.84;;;3.93;67.54
78210;BME280;67485;48.816;9.930;2023-04-03T08:52:45;97661.09;;;4.03;67.06
78210;BME280;67485;48.816;9.930;2023-04-03T08:55:22;97657.78;;;4.14;67.01
78210;BME280;67485;48.816;9.930;2023-04-03T08:57:53;97656.22;;;4.28;68.12
78210;BME280;67485;48.816;9.930;2023-04-03T09:00:23;97653.56;;;4.24;67.00
78210;BME280;67485;48.816;9.930;2023-04-03T09:02:53;97663.03;;;4.20;67.41
78210;BME280;67485;48.816;9.930;2023-04-03T09:08:03;97661.75;;;3.87;67.12
78210;BME280;67485;48.816;9.930;2023-04-03T09:10:33;97656.59;;;3.90;67.75
78210;BME280;67485;48.816;9.930;2023-04-03T09:13:11;97661.69;;;3.82;68.08
78210;BME280;67485;48.816;9.930;2023-04-03T09:15:40;97669.38;;;3.75;67.69
78210;BME280;67485;48.816;9.930;2023-04-03T09:18:16;97664.38;;;3.87;68.04
78210;BME280;67485;48.816;9.930;2023-04-03T09:28:49;97663.97;;;4.27;66.33
78210;BME280;67485;48.816;9.930;2023-04-03T09:31:20;97660.59;;;4.32;65.49
78210;BME280;67485;48.816;9.930;2023-04-03T09:33:49;97650.97;;;4.25;65.07
78210;BME280;67485;48.816;9.930;2023-04-03T09:36:45;97656.84;;;4.07;65.85
78210;BME280;67485;48.816;9.930;2023-04-03T09:39:21;97648.38;;;4.22;65.85
78210;BME280;67485;48.816;9.930;2023-04-03T09:42:03;97652.19;;;4.57;64.67
78210;BME280;67485;48.816;9.930;2023-04-03T09:44:34;97646.09;;;4.53;64.08
78210;BME280;67485;48.816;9.930;2023-04-03T09:47:26;97653.22;;;4.69;64.91
78210;BME280;67485;48.816;9.930;2023-04-03T09:52:38;97645.00;;;5.22;60.83
78210;BME280;67485;48.816;9.930;2023-04-03T09:55:13;97649.22;;;5.07;60.08
78210;BME280;67485;48.816;9.930;2023-04-03T09:57:40;97646.88;;;5.40;61.20
78210;BME280;67485;48.816;9.930;2023-04-03T10:00:20;97651.88;;;5.16;58.49
78210;BME280;67485;48.816;9.930;2023-04-03T10:02:51;97649.22;;;5.09;58.26
78210;BME280;67485;48.816;9.930;2023-04-03T10:05:35;97648.22;;;4.94;58.00
78210;BME280;67485;48.816;9.930;2023-04-03T10:08:10;97641.28;;;4.93;58.62
78210;BME280;67485;48.816;9.930;2023-04-03T10:10:37;97644.41;;;4.55;57.59
78210;BME280;67485;48.816;9.930;2023-04-03T10:13:19;97654.03;;;4.67;57.99
78210;BME280;67485;48.816;9.930;2023-04-03T10:18:58;97651.72;;;4.99;57.26
78210;BME280;67485;48.816;9.930;2023-04-03T10:21:48;97649.78;;;4.74;56.71
78210;BME280;67485;48.816;9.930;2023-04-03T10:24:52;97649.66;;;4.61;56.45
78210;BME280;67485;48.816;9.930;2023-04-03T10:30:53;97647.28;;;4.84;56.09
78210;BME280;67485;48.816;9.930;2023-04-03T10:51:05;97630.72;;;4.71;54.66
78210;BME280;67485;48.816;9.930;2023-04-03T10:53:18;97641.25;;;4.87;55.71
78210;BME280;67485;48.816;9.930;2023-04-03T10:56:37;97641.09;;;4.71;54.03
78210;BME280;67485;48.816;9.930;2023-04-03T10:58:45;97634.88;;;4.55;53.00
78210;BME280;67485;48.816;9.930;2023-04-03T11:01:16;97634.69;;;4.37;53.53
78210;BME280;67485;48.816;9.930;2023-04-03T11:03:50;97630.53;;;4.53;55.26
78210;BME280;67485;48.816;9.930;2023-04-03T11:06:19;97628.94;;;4.67;54.88
78210;BME280;67485;48.816;9.930;2023-04-03T11:09:02;97633.19;;;4.59;53.57
78210;BME280;67485;48.816;9.930;2023-04-03T11:11:33;97627.25;;;4.69;55.33
78210;BME280;67485;48.816;9.930;2023-04-03T11:16:40;97627.25;;;4.69;54.24
78210;BME280;67485;48.816;9.930;2023-04-03T11:19:17;97617.03;;;4.91;54.41
78210;BME280;67485;48.816;9.930;2023-04-03T11:22:16;97620.31;;;4.71;53.06
78210;BME280;67485;48.816;9.930;2023-04-03T11:25:05;97619.75;;;5.07;54.89
78210;BME280;67485;48.816;9.930;2023-04-03T11:27:44;97622.50;;;5.22;54.60
78210;BME280;67485;48.816;9.930;2023-04-03T11:30:37;97614.47;;;4.93;52.81
78210;BME280;67485;48.816;9.930;2023-04-03T11:36:00;97611.88;;;4.94;52.46
78210;BME280;67485;48.816;9.930;2023-04-03T11:38:35;97605.00;;;5.02;52.46
78210;BME280;67485;48.816;9.930;2023-04-03T11:41:06;97608.75;;;5.42;54.50
78210;BME280;67485;48.816;9.930;2023-04-03T11:43:36;97600.88;;;5.26;52.99
78210;BME280;67485;48.816;9.930;2023-04-03T11:46:06;97603.41;;;5.20;52.32
78210;BME280;67485;48.816;9.930;2023-04-03T11:53:40;97601.56;;;5.03;53.77
78210;BME280;67485;48.816;9.930;2023-04-03T12:04:12;97598.97;;;5.03;53.22
78210;BME280;67485;48.816;9.930;2023-04-03T12:14:48;97595.75;;;5.37;51.60
78210;BME280;67485;48.816;9.930;2023-04-03T12:17:25;97603.53;;;5.37;51.62
78210;BME280;67485;48.816;9.930;2023-04-03T12:19:52;97593.31;;;5.66;52.09
78210;BME280;67485;48.816;9.930;2023-04-03T12:22:19;97587.31;;;5.81;50.59
78210;BME280;67485;48.816;9.930;2023-04-03T12:24:51;97584.56;;;5.58;51.35
78210;BME280;67485;48.816;9.930;2023-04-03T12:35:03;97583.03;;;5.91;49.81
78210;BME280;67485;48.816;9.930;2023-04-03T12:40:46;97573.34;;;5.65;49.14
78210;BME280;67485;48.816;9.930;2023-04-03T12:51:16;97569.16;;;5.92;49.28
78210;BME280;67485;48.816;9.930;2023-04-03T12:53:44;97578.56;;;5.67;49.47
78210;BME280;67485;48.816;9.930;2023-04-03T12:56:30;97575.97;;;5.72;49.73
78210;BME280;67485;48.816;9.930;2023-04-03T12:59:20;97575.31;;;6.13;50.16
78210;BME280;67485;48.816;9.930;2023-04-03T13:02:00;97570.09;;;6.14;51.15
78210;BME280;67485;48.816;9.930;2023-04-03T13:04:31;97568.22;;;5.78;51.68
78210;BME280;67485;48.816;9.930;2023-04-03T13:06:57;97577.66;;;5.60;50.85
78210;BME280;67485;48.816;9.930;2023-04-03T13:09:28;97574.13;;;5.49;50.61
78210;BME280;67485;48.816;9.930;2023-04-03T13:12:12;97568.84;;;5.33;50.63
78210;BME280;67485;48.816;9.930;2023-04-03T13:14:38;97568.94;;;5.46;50.53
78210;BME280;67485;48.816;9.930;2023-04-03T13:17:13;97570.75;;;5.62;50.52
78210;BME280;67485;48.816;9.930;2023-04-03T13:19:41;97574.97;;;5.43;49.80
78210;BME280;67485;48.816;9.930;2023-04-03T13:22:35;97568.09;;;5.53;50.89
78210;BME280;67485;48.816;9.930;2023-04-03T13:25:07;97568.97;;;5.55;50.85
78210;BME280;67485;48.816;9.930;2023-04-03T13:27:35;97571.66;;;5.77;50.37
78210;BME280;67485;48.816;9.930;2023-04-03T13:30:02;97568.16;;;5.62;51.27
78210;BME280;67485;48.816;9.930;2023-04-03T13:32:30;97567.28;;;5.69;49.79
78210;BME280;67485;48.816;9.930;2023-04-03T13:34:57;97567.28;;;5.63;50.30
78210;BME280;67485;48.816;9.930;2023-04-03T13:37:29;97562.13;;;5.73;50.77
78210;BME280;67485;48.816;9.930;2023-04-03T13:42:29;97564.88;;;6.07;49.35
78210;BME280;67485;48.816;9.930;2023-04-03T13:45:24;97557.13;;;6.25;48.71
78210;BME280;67485;48.816;9.930;2023-04-03T13:48:14;97559.72;;;6.25;49.52
78210;BME280;67485;48.816;9.930;2023-04-03T13:51:02;97557.13;;;6.22;47.97
78210;BME280;67485;48.816;9.930;2023-04-03T13:53:31;97560.44;;;5.81;47.23
78210;BME280;67485;48.816;9.930;2023-04-03T13:56:09;97556.91;;;5.76;49.28
78210;BME280;67485;48.816;9.930;2023-04-03T13:58:36;97562.28;;;6.08;49.35
78210;BME280;67485;48.816;9.930;2023-04-03T14:01:08;97551.88;;;6.04;47.74
78210;BME280;67485;48.816;9.930;2023-04-03T14:03:44;97562.19;;;5.88;48.57
78210;BME280;67485;48.816;9.930;2023-04-03T14:06:15;97554.28;;;5.66;48.68
78210;BME280;67485;48.816;9.930;2023-04-03T14:08:43;97559.50;;;5.69;48.29
78210;BME280;67485;48.816;9.930;2023-04-03T14:11:29;97560.34;;;5.62;45.73
78210;BME280;67485;48.816;9.930;2023-04-03T14:14:00;97556.75;;;5.39;46.68
78210;BME280;67485;48.816;9.930;2023-04-03T14:16:29;97551.72;;;5.73;47.42
78210;BME280;67485;48.816;9.930;2023-04-03T14:18:56;97555.34;;;6.03;47.16
78210;BME280;67485;48.816;9.930;2023-04-03T14:21:22;97551.06;;;6.19;47.33
78210;BME280;67485;48.816;9.930;2023-04-03T14:23:49;97546.75;;;6.44;44.52
78210;BME280;67485;48.816;9.930;2023-04-03T14:26:18;97538.09;;;6.73;44.60
78210;BME280;67485;48.816;9.930;2023-04-03T14:28:46;97538.97;;;6.78;43.97
78210;BME280;67485;48.816;9.930;2023-04-03T14:31:13;97542.41;;;6.41;44.81
78210;BME280;67485;48.816;9.930;2023-04-03T14:33:39;97544.88;;;5.96;45.53
78210;BME280;67485;48.816;9.930;2023-04-03T14:36:12;97543.91;;;5.71;46.68
78210;BME280;67485;48.816;9.930;2023-04-03T14:38:38;97535.22;;;5.71;48.57
78210;BME280;67485;48.816;9.930;2023-04-03T14:41:04;97535.97;;;5.39;48.56
78210;BME280;67485;48.816;9.930;2023-04-03T14:43:30;97541.97;;;5.30;49.17
78210;BME280;67485;48.816;9.930;2023-04-03T14:45:55;97536.78;;;5.30;49.62
78210;BME280;67485;48.816;9.930;2023-04-03T14:48:24;97532.47;;;5.36;49.38
78210;BME280;67485;48.816;9.930;2023-04-03T14:50:52;97532.41;;;5.24;50.01
78210;BME280;67485;48.816;9.930;2023-04-03T14:53:19;97527.31;;;5.40;50.10
78210;BME280;67485;48.816;9.930;2023-04-03T14:55:49;97527.47;;;5.74;49.08
78210;BME280;67485;48.816;9.930;2023-04-03T14:58:17;97525.88;;;6.19;46.93